Time;durP1;ratioP1;P1;durP2;ratioP2;P2;SDS_P1;SDS_P2;PMS_P1;PMS_P2;Temp;Humidity;BMP_temperature;BMP_pressure;BME280_temperature;BME280_humidity;BME280_pressure;Samples;Min_cycle;Max_cycle;Signal;HPM_P1;HPM_P2
2021/06/29 00:53:12;;;;;;;0.60;0.60;;;;;;;;;;5013086;28;20190;-76
2021/06/29 00:55:40;;;;;;;0.90;0.60;;;;;;;;;;5014507;28;20310;-75
2021/06/29 00:58:10;;;;;;;2.88;0.65;;;;;;;;;;5030980;28;20285;-77
2021/06/29 01:35:04;;;;;;;0.68;0.68;;;;;;;;;;5103346;27;20550;-76
2021/06/29 01:37:30;;;;;;;0.47;0.47;;;;;;;;;;5068291;28;20209;-76
2021/06/29 01:40:01;;;;;;;0.65;0.65;;;;;;;;;;5068508;28;20212;-76
2021/06/29 01:42:28;;;;;;;1.02;0.80;;;;;;;;;;5068768;28;20207;-76
2021/06/29 01:44:54;;;;;;;0.80;0.60;;;;;;;;;;5067502;28;20217;-75
2021/06/29 01:48:05;;;;;;;1.08;0.80;;;;;;;;;;5066968;28;20219;-76
2021/06/29 01:50:12;;;;;;;1.25;0.82;;;;;;;;;;5064733;28;20209;-75
2021/06/29 01:52:38;;;;;;;0.95;0.60;;;;;;;;;;5068068;28;20549;-76
2021/06/29 01:55:05;;;;;;;0.98;0.70;;;;;;;;;;5067305;28;20228;-75
2021/06/29 01:57:32;;;;;;;0.98;0.80;;;;;;;;;;5068120;28;20201;-76
2021/06/29 01:59:58;;;;;;;1.77;0.80;;;;;;;;;;5067964;28;20197;-76
2021/06/29 02:02:24;;;;;;;0.95;0.80;;;;;;;;;;5067687;28;20212;-75
2021/06/29 02:04:51;;;;;;;0.80;0.75;;;;;;;;;;5065640;28;21083;-75
2021/06/29 02:07:17;;;;;;;0.68;0.63;;;;;;;;;;5067829;28;20223;-74
2021/06/29 02:09:44;;;;;;;0.60;0.60;;;;;;;;;;5067691;28;20211;-74
2021/06/29 02:12:10;;;;;;;1.42;0.57;;;;;;;;;;5067610;28;20209;-75
2021/06/29 02:14:37;;;;;;;1.48;0.75;;;;;;;;;;5066996;28;20233;-74
2021/06/29 02:17:04;;;;;;;0.55;0.55;;;;;;;;;;5067057;28;20577;-75
2021/06/29 02:19:30;;;;;;;0.90;0.80;;;;;;;;;;5067763;28;20201;-73
2021/06/29 02:21:57;;;;;;;1.00;0.70;;;;;;;;;;5067780;28;20223;-77
2021/06/29 02:24:23;;;;;;;0.98;0.80;;;;;;;;;;5066900;28;20244;-75
2021/06/29 02:26:50;;;;;;;0.70;0.60;;;;;;;;;;5068148;28;20567;-76
2021/06/29 02:29:16;;;;;;;0.70;0.70;;;;;;;;;;5068668;28;20745;-77
2021/06/29 02:31:42;;;;;;;1.45;0.70;;;;;;;;;;5067953;28;20232;-76
2021/06/29 02:34:09;;;;;;;0.95;0.75;;;;;;;;;;5067476;28;20237;-77
2021/06/29 02:36:35;;;;;;;0.73;0.73;;;;;;;;;;5068370;28;20576;-77
2021/06/29 02:39:02;;;;;;;0.60;0.60;;;;;;;;;;5069108;28;20197;-77
2021/06/29 02:41:29;;;;;;;0.70;0.70;;;;;;;;;;5068110;28;20637;-76
2021/06/29 02:43:55;;;;;;;0.60;0.60;;;;;;;;;;5069500;28;20260;-77
2021/06/29 02:46:21;;;;;;;0.65;0.65;;;;;;;;;;5057020;28;20206;-72
2021/06/29 02:48:48;;;;;;;0.50;0.50;;;;;;;;;;5054036;28;20653;-75
2021/06/29 02:51:15;;;;;;;1.17;0.75;;;;;;;;;;5053823;28;20297;-76
2021/06/29 02:53:41;;;;;;;0.70;0.65;;;;;;;;;;5051911;28;20237;-76
2021/06/29 02:56:37;;;;;;;0.82;0.80;;;;;;;;;;5085811;28;20206;-76
2021/06/29 02:58:54;;;;;;;0.50;0.50;;;;;;;;;;5053264;28;20281;-77
2021/06/29 03:01:20;;;;;;;0.95;0.70;;;;;;;;;;5053455;28;20300;-76
2021/06/29 03:03:47;;;;;;;0.60;0.60;;;;;;;;;;5052523;28;20709;-77
2021/06/29 03:06:13;;;;;;;0.70;0.70;;;;;;;;;;5053361;28;20212;-76
2021/06/29 03:08:40;;;;;;;0.98;0.70;;;;;;;;;;5053241;28;20237;-75
2021/06/29 03:11:06;;;;;;;1.25;1.02;;;;;;;;;;5053379;28;20212;-76
2021/06/29 03:13:32;;;;;;;2.95;0.80;;;;;;;;;;5052298;28;20237;-76
2021/06/29 03:15:59;;;;;;;0.70;0.70;;;;;;;;;;5053347;28;20217;-75
2021/06/29 03:18:25;;;;;;;0.93;0.70;;;;;;;;;;5053303;28;20553;-74
2021/06/29 03:20:52;;;;;;;1.02;0.80;;;;;;;;;;5053356;28;20206;-75
2021/06/29 03:23:18;;;;;;;0.70;0.70;;;;;;;;;;5051601;28;20215;-74
2021/06/29 03:25:44;;;;;;;1.08;0.77;;;;;;;;;;5052672;28;20210;-74
2021/06/29 03:28:14;;;;;;;0.88;0.88;;;;;;;;;;5053007;28;20585;-74
2021/06/29 03:30:40;;;;;;;0.60;0.50;;;;;;;;;;5053065;28;20212;-74
2021/06/29 03:33:07;;;;;;;1.10;0.85;;;;;;;;;;5051467;28;20300;-74
2021/06/29 03:35:33;;;;;;;1.10;0.80;;;;;;;;;;5034871;28;20233;-74
2021/06/29 03:37:59;;;;;;;1.52;1.10;;;;;;;;;;5052728;28;20201;-75
2021/06/29 03:40:26;;;;;;;1.35;1.00;;;;;;;;;;5051288;28;20656;-74
2021/06/29 03:42:52;;;;;;;1.70;1.08;;;;;;;;;;5052861;28;20202;-74
2021/06/29 03:45:19;;;;;;;1.27;1.08;;;;;;;;;;5052008;28;20210;-73
2021/06/29 03:47:45;;;;;;;0.85;0.82;;;;;;;;;;5052738;28;20202;-73
2021/06/29 03:50:11;;;;;;;1.02;0.82;;;;;;;;;;5052510;28;20237;-74
2021/06/29 03:52:38;;;;;;;0.98;0.90;;;;;;;;;;5052502;28;20298;-75
2021/06/29 03:55:05;;;;;;;1.02;0.88;;;;;;;;;;5051378;28;20308;-74
2021/06/29 03:57:32;;;;;;;0.80;0.80;;;;;;;;;;5051569;28;20264;-75
2021/06/29 03:59:58;;;;;;;1.15;0.98;;;;;;;;;;5052214;28;20208;-74
2021/06/29 04:02:27;;;;;;;0.80;0.70;;;;;;;;;;5052428;28;20206;-74
2021/06/29 04:04:55;;;;;;;1.40;1.15;;;;;;;;;;5051827;28;20272;-74
2021/06/29 04:07:21;;;;;;;1.42;1.23;;;;;;;;;;5052409;28;20343;-74
2021/06/29 04:09:47;;;;;;;0.98;0.90;;;;;;;;;;5051118;28;20209;-74
2021/06/29 04:12:14;;;;;;;1.48;0.90;;;;;;;;;;5050873;28;20216;-74
2021/06/29 04:14:40;;;;;;;1.27;1.17;;;;;;;;;;5051215;28;20268;-75
2021/06/29 04:17:07;;;;;;;1.30;1.20;;;;;;;;;;5050951;28;20644;-74
2021/06/29 04:19:33;;;;;;;2.50;1.27;;;;;;;;;;5052218;28;20260;-74
2021/06/29 04:22:00;;;;;;;1.75;1.20;;;;;;;;;;5052164;28;20209;-74
2021/06/29 04:24:26;;;;;;;1.40;0.98;;;;;;;;;;5050865;28;20388;-74
2021/06/29 04:26:52;;;;;;;1.73;1.40;;;;;;;;;;5052037;28;20241;-74
2021/06/29 04:29:19;;;;;;;1.17;1.02;;;;;;;;;;5050580;28;20206;-75
2021/06/29 04:31:45;;;;;;;2.72;1.45;;;;;;;;;;5051950;28;20206;-75
2021/06/29 04:34:12;;;;;;;1.00;0.90;;;;;;;;;;5050589;28;20706;-75
2021/06/29 04:36:38;;;;;;;1.42;1.33;;;;;;;;;;5051504;28;20217;-75
2021/06/29 04:39:05;;;;;;;1.80;1.42;;;;;;;;;;5050313;28;20208;-74
2021/06/29 04:41:33;;;;;;;2.83;1.38;;;;;;;;;;5051632;28;20237;-75
2021/06/29 04:43:59;;;;;;;1.65;1.25;;;;;;;;;;5050860;28;20340;-74
2021/06/29 04:46:25;;;;;;;1.90;1.48;;;;;;;;;;5051434;28;20644;-74
2021/06/29 04:48:52;;;;;;;1.80;1.65;;;;;;;;;;5051527;28;20236;-75
2021/06/29 04:51:18;;;;;;;2.45;1.85;;;;;;;;;;5051069;28;20216;-74
2021/06/29 04:53:45;;;;;;;1.55;1.45;;;;;;;;;;5050425;28;20232;-74
2021/06/29 04:56:17;;;;;;;1.70;1.45;;;;;;;;;;5051398;28;20202;-73
2021/06/29 04:58:54;;;;;;;2.10;1.65;;;;;;;;;;5082952;28;20286;-74
2021/06/29 05:01:21;;;;;;;1.73;1.63;;;;;;;;;;5043306;28;20190;-75
2021/06/29 05:03:48;;;;;;;1.60;1.30;;;;;;;;;;5050383;28;20261;-75
2021/06/29 05:06:18;;;;;;;1.67;1.50;;;;;;;;;;5051453;28;20210;-75
2021/06/29 05:08:44;;;;;;;2.00;1.52;;;;;;;;;;5048573;28;20285;-72
2021/06/29 05:11:36;;;;;;;1.48;1.38;;;;;;;;;;5052478;28;20290;-71
2021/06/29 05:14:03;;;;;;;2.28;1.45;;;;;;;;;;5053205;28;20233;-71
2021/06/29 05:16:29;;;;;;;1.90;1.60;;;;;;;;;;5051568;28;20206;-70
2021/06/29 05:18:56;;;;;;;2.75;1.80;;;;;;;;;;5051525;28;20252;-70
2021/06/29 05:21:22;;;;;;;3.15;2.10;;;;;;;;;;5051431;28;20209;-70
2021/06/29 05:23:48;;;;;;;2.58;1.92;;;;;;;;;;5050383;28;20248;-72
2021/06/29 05:26:15;;;;;;;2.42;2.03;;;;;;;;;;5051070;28;20285;-71
2021/06/29 05:28:41;;;;;;;2.47;2.13;;;;;;;;;;5041837;28;20297;-72
2021/06/29 05:31:08;;;;;;;2.10;1.75;;;;;;;;;;5027844;28;20210;-72
2021/06/29 05:33:34;;;;;;;2.70;2.03;;;;;;;;;;5027656;28;20727;-72
2021/06/29 05:36:00;;;;;;;2.20;1.95;;;;;;;;;;5030614;28;20362;-71
2021/06/29 05:38:27;;;;;;;2.08;1.67;;;;;;;;;;5062610;28;20675;-72
2021/06/29 05:40:53;;;;;;;1.92;1.80;;;;;;;;;;5034887;28;20213;-73
2021/06/29 05:43:20;;;;;;;2.40;1.80;;;;;;;;;;5038908;28;20573;-72
2021/06/29 05:45:46;;;;;;;1.60;1.50;;;;;;;;;;5050671;28;20648;-72
2021/06/29 05:48:15;;;;;;;1.75;1.48;;;;;;;;;;5050096;28;20210;-72
2021/06/29 05:50:41;;;;;;;1.38;1.20;;;;;;;;;;5036763;28;20210;-72
2021/06/29 05:53:07;;;;;;;2.22;1.70;;;;;;;;;;5038509;28;20210;-72
2021/06/29 05:55:34;;;;;;;1.77;1.55;;;;;;;;;;5049886;28;20308;-72
2021/06/29 05:58:12;;;;;;;3.78;1.90;;;;;;;;;;5029426;28;20268;-72
2021/06/29 06:00:39;;;;;;;3.05;1.73;;;;;;;;;;5049009;28;20200;-72
2021/06/29 06:03:05;;;;;;;4.05;1.85;;;;;;;;;;5050371;28;20308;-72
2021/06/29 06:05:32;;;;;;;1.95;1.48;;;;;;;;;;5049933;28;20222;-72
2021/06/29 06:07:58;;;;;;;2.47;1.58;;;;;;;;;;5033825;28;20207;-72
2021/06/29 06:10:24;;;;;;;2.25;1.85;;;;;;;;;;5062447;28;20217;-73
2021/06/29 06:12:51;;;;;;;2.17;1.50;;;;;;;;;;5045673;28;20276;-72
2021/06/29 06:15:17;;;;;;;2.67;1.58;;;;;;;;;;5029957;28;20300;-71
2021/06/29 06:17:44;;;;;;;3.60;1.80;;;;;;;;;;5030417;28;20203;-72
2021/06/29 06:20:11;;;;;;;1.92;1.65;;;;;;;;;;5063716;28;20198;-73
2021/06/29 06:22:38;;;;;;;2.08;1.58;;;;;;;;;;5034216;28;20769;-72
2021/06/29 06:25:05;;;;;;;2.22;1.65;;;;;;;;;;5033850;28;20226;-73
2021/06/29 06:27:31;;;;;;;1.63;1.33;;;;;;;;;;5051864;28;20206;-73
2021/06/29 06:29:58;;;;;;;3.65;2.10;;;;;;;;;;5034351;28;20217;-73
2021/06/29 06:32:24;;;;;;;2.78;1.70;;;;;;;;;;5034173;28;20206;-73
2021/06/29 06:34:51;;;;;;;3.55;2.25;;;;;;;;;;5033848;28;20227;-73
2021/06/29 06:37:17;;;;;;;3.00;2.13;;;;;;;;;;5066037;28;20230;-73
2021/06/29 06:39:44;;;;;;;5.18;1.63;;;;;;;;;;5035589;28;20203;-73
2021/06/29 06:42:10;;;;;;;2.40;1.55;;;;;;;;;;5034311;28;20202;-74
2021/06/29 06:44:37;;;;;;;2.25;1.75;;;;;;;;;;5033399;28;20234;-73
2021/06/29 06:47:03;;;;;;;1.50;1.40;;;;;;;;;;5034006;28;20766;-73
2021/06/29 06:49:30;;;;;;;2.03;1.50;;;;;;;;;;5034161;28;20245;-71
2021/06/29 06:51:56;;;;;;;1.90;1.45;;;;;;;;;;5050254;28;20655;-72
2021/06/29 06:54:22;;;;;;;1.60;1.50;;;;;;;;;;5051729;28;20222;-75
2021/06/29 06:56:49;;;;;;;1.85;1.33;;;;;;;;;;5086066;28;20662;-73
2021/06/29 06:59:15;;;;;;;1.27;1.02;;;;;;;;;;5086230;28;20232;-75
2021/06/29 07:01:43;;;;;;;1.90;1.20;;;;;;;;;;5054033;28;20296;-76
2021/06/29 07:04:09;;;;;;;4.20;1.83;;;;;;;;;;5052986;28;20827;-75
2021/06/29 07:06:35;;;;;;;1.38;1.20;;;;;;;;;;5085925;28;20288;-75
2021/06/29 07:09:02;;;;;;;1.42;1.00;;;;;;;;;;5053566;28;20248;-75
2021/06/29 07:11:38;;;;;;;0.80;0.80;;;;;;;;;;5053911;28;20214;-75
2021/06/29 07:14:04;;;;;;;1.10;1.00;;;;;;;;;;5052891;28;20317;-75
2021/06/29 07:16:31;;;;;;;1.00;0.90;;;;;;;;;;5053580;28;20212;-75
2021/06/29 07:18:57;;;;;;;3.88;0.80;;;;;;;;;;5053451;28;20205;-75
2021/06/29 07:21:26;;;;;;;1.45;1.00;;;;;;;;;;5085497;28;20224;-75
2021/06/29 07:23:54;;;;;;;0.95;0.88;;;;;;;;;;5052811;28;20221;-74
2021/06/29 07:26:21;;;;;;;0.90;0.90;;;;;;;;;;5053663;28;20285;-75
2021/06/29 07:28:47;;;;;;;1.17;1.02;;;;;;;;;;5053469;28;20285;-75
2021/06/29 07:31:17;;;;;;;1.20;1.10;;;;;;;;;;5053379;28;20202;-75
2021/06/29 07:33:47;;;;;;;1.55;1.23;;;;;;;;;;5052331;28;20306;-75
2021/06/29 07:36:15;;;;;;;0.80;0.80;;;;;;;;;;5053204;28;20240;-74
2021/06/29 07:38:42;;;;;;;1.27;1.17;;;;;;;;;;5052480;28;20305;-74
2021/06/29 07:41:10;;;;;;;0.80;0.80;;;;;;;;;;5052915;28;20241;-74
2021/06/29 07:43:36;;;;;;;1.00;0.90;;;;;;;;;;5086530;28;20302;-75
2021/06/29 07:46:03;;;;;;;1.02;0.90;;;;;;;;;;5088717;28;20297;-75
2021/06/29 07:48:29;;;;;;;1.40;1.30;;;;;;;;;;5053407;28;20335;-75
2021/06/29 07:50:56;;;;;;;1.42;1.33;;;;;;;;;;5052358;28;20649;-75
2021/06/29 07:53:22;;;;;;;1.20;1.08;;;;;;;;;;5052438;28;20745;-75
2021/06/29 07:55:49;;;;;;;0.98;0.80;;;;;;;;;;5052927;28;20667;-75
2021/06/29 07:58:19;;;;;;;2.15;1.42;;;;;;;;;;5049792;28;20202;-75
2021/06/29 08:00:45;;;;;;;1.10;1.00;;;;;;;;;;5033901;28;20226;-71
2021/06/29 08:03:12;;;;;;;1.50;0.90;;;;;;;;;;5051267;28;20209;-71
2021/06/29 08:05:39;;;;;;;4.20;1.10;;;;;;;;;;5052451;28;20210;-71
2021/06/29 08:08:07;;;;;;;1.77;1.30;;;;;;;;;;5052293;28;20698;-70
2021/06/29 08:10:34;;;;;;;1.40;1.20;;;;;;;;;;5052784;28;20210;-70
2021/06/29 08:13:01;;;;;;;1.70;1.40;;;;;;;;;;5051316;28;20276;-72
2021/06/29 08:15:28;;;;;;;1.40;1.30;;;;;;;;;;5051575;28;20222;-71
2021/06/29 08:17:54;;;;;;;2.47;1.13;;;;;;;;;;5052411;28;20241;-70
2021/06/29 08:20:21;;;;;;;1.55;1.10;;;;;;;;;;5052271;28;20729;-69
2021/06/29 08:22:48;;;;;;;1.38;1.20;;;;;;;;;;5051968;28;20669;-70
2021/06/29 08:25:15;;;;;;;1.42;1.23;;;;;;;;;;5051305;28;20264;-69
2021/06/29 08:27:42;;;;;;;1.60;1.33;;;;;;;;;;5052330;28;20216;-74
2021/06/29 08:30:09;;;;;;;1.65;1.33;;;;;;;;;;5051446;28;20248;-73
2021/06/29 08:32:37;;;;;;;1.98;1.35;;;;;;;;;;5051686;28;20252;-74
2021/06/29 08:35:08;;;;;;;1.23;1.00;;;;;;;;;;5051293;28;20234;-73
2021/06/29 08:37:35;;;;;;;1.60;1.15;;;;;;;;;;5050743;28;20206;-74
2021/06/29 08:40:02;;;;;;;0.90;0.90;;;;;;;;;;5052074;28;20210;-74
2021/06/29 08:42:33;;;;;;;0.68;0.68;;;;;;;;;;5051086;28;20209;-75
2021/06/29 08:45:00;;;;;;;1.35;0.98;;;;;;;;;;5050492;28;20228;-74
2021/06/29 08:47:26;;;;;;;1.60;1.27;;;;;;;;;;5051843;28;20201;-74
2021/06/29 08:49:53;;;;;;;2.08;1.10;;;;;;;;;;5051633;28;20240;-75
2021/06/29 08:52:19;;;;;;;1.30;1.20;;;;;;;;;;5051522;28;20284;-75
2021/06/29 08:54:54;;;;;;;1.25;1.15;;;;;;;;;;5051012;28;20229;-75
2021/06/29 08:57:20;;;;;;;0.98;0.98;;;;;;;;;;5051716;28;20300;-74
2021/06/29 08:59:47;;;;;;;1.45;1.20;;;;;;;;;;5051599;28;20280;-74
2021/06/29 09:02:13;;;;;;;1.80;1.17;;;;;;;;;;5050632;28;20297;-74
2021/06/29 09:04:43;;;;;;;1.63;1.30;;;;;;;;;;5065021;28;20275;-74
2021/06/29 09:07:15;;;;;;;1.95;1.40;;;;;;;;;;5050038;28;20202;-74
2021/06/29 09:09:49;;;;;;;1.20;1.08;;;;;;;;;;5051397;28;20585;-74
2021/06/29 09:12:34;;;;;;;1.23;1.13;;;;;;;;;;5050485;28;20647;-73
2021/06/29 09:15:20;;;;;;;1.10;1.00;;;;;;;;;;5050767;28;20221;-76
2021/06/29 09:17:46;;;;;;;4.38;1.30;;;;;;;;;;5050087;28;20287;-74
2021/06/29 09:20:13;;;;;;;1.17;1.08;;;;;;;;;;5051299;28;20232;-74
2021/06/29 09:22:39;;;;;;;1.83;1.10;;;;;;;;;;5051587;28;20284;-74
2021/06/29 09:25:21;;;;;;;0.98;0.88;;;;;;;;;;5049525;28;20229;-74
2021/06/29 09:27:48;;;;;;;0.65;0.65;;;;;;;;;;5050106;28;20197;-74
2021/06/29 09:30:30;;;;;;;2.45;1.10;;;;;;;;;;5051098;28;20197;-73
2021/06/29 09:32:57;;;;;;;0.80;0.80;;;;;;;;;;5049954;28;20339;-74
2021/06/29 09:35:24;;;;;;;0.90;0.90;;;;;;;;;;5050226;28;20362;-74
2021/06/29 09:37:51;;;;;;;1.00;0.90;;;;;;;;;;5051151;28;20288;-74
2021/06/29 09:40:19;;;;;;;1.55;0.70;;;;;;;;;;5050969;28;20211;-73
2021/06/29 09:42:45;;;;;;;0.60;0.60;;;;;;;;;;5050770;28;20611;-74
2021/06/29 09:45:31;;;;;;;1.65;1.20;;;;;;;;;;5081742;28;20232;-74
2021/06/29 09:47:59;;;;;;;1.15;1.02;;;;;;;;;;5050824;28;20692;-74
2021/06/29 09:50:39;;;;;;;1.08;0.90;;;;;;;;;;5050768;28;20199;-73
2021/06/29 09:53:13;;;;;;;0.60;0.60;;;;;;;;;;5050649;28;20229;-73
2021/06/29 09:55:44;;;;;;;1.27;0.70;;;;;;;;;;5052712;28;20213;-74
2021/06/29 09:58:10;;;;;;;0.80;0.80;;;;;;;;;;5055185;28;20209;-74
2021/06/29 10:00:41;;;;;;;0.77;0.68;;;;;;;;;;5053622;28;20741;-75
2021/06/29 10:03:26;;;;;;;0.90;0.90;;;;;;;;;;5054391;28;20231;-75
2021/06/29 10:05:57;;;;;;;0.73;0.73;;;;;;;;;;5054124;28;20225;-74
2021/06/29 10:08:24;;;;;;;0.90;0.90;;;;;;;;;;5053664;28;20646;-74
2021/06/29 10:11:02;;;;;;;1.35;0.90;;;;;;;;;;5055530;28;20206;-73
2021/06/29 10:13:31;;;;;;;0.90;0.73;;;;;;;;;;5054792;28;20249;-74
2021/06/29 10:15:58;;;;;;;1.40;1.00;;;;;;;;;;5056265;28;20226;-72
2021/06/29 10:18:25;;;;;;;1.15;1.00;;;;;;;;;;5056628;28;20594;-74
2021/06/29 10:20:53;;;;;;;0.82;0.82;;;;;;;;;;5054830;28;20210;-74
2021/06/29 10:23:20;;;;;;;1.30;1.20;;;;;;;;;;5053796;28;20205;-74
2021/06/29 10:25:46;;;;;;;1.50;1.00;;;;;;;;;;5054288;28;20225;-73
2021/06/29 10:28:13;;;;;;;1.25;0.90;;;;;;;;;;5053791;28;20577;-73
2021/06/29 10:30:40;;;;;;;0.98;0.90;;;;;;;;;;5054075;28;20229;-74
2021/06/29 10:33:10;;;;;;;1.17;1.08;;;;;;;;;;5051820;28;20221;-73
2021/06/29 10:35:37;;;;;;;1.33;1.00;;;;;;;;;;5053375;28;20651;-73
2021/06/29 10:38:03;;;;;;;1.00;0.95;;;;;;;;;;5053754;28;20212;-75
2021/06/29 10:40:31;;;;;;;3.05;0.80;;;;;;;;;;5053812;28;20206;-76
2021/06/29 10:42:58;;;;;;;1.00;0.90;;;;;;;;;;5053437;28;20678;-75
2021/06/29 10:45:32;;;;;;;1.00;0.95;;;;;;;;;;5052490;28;20291;-75
2021/06/29 10:48:17;;;;;;;1.02;0.95;;;;;;;;;;5053736;28;20607;-75
2021/06/29 10:50:44;;;;;;;1.45;1.20;;;;;;;;;;5053536;28;20677;-76
2021/06/29 10:53:30;;;;;;;1.40;1.20;;;;;;;;;;5053553;28;20248;-76
2021/06/29 10:55:56;;;;;;;2.35;0.90;;;;;;;;;;5052731;28;20237;-75
2021/06/29 10:58:35;;;;;;;1.10;1.00;;;;;;;;;;5068961;28;20201;-75
2021/06/29 11:01:20;;;;;;;1.08;0.80;;;;;;;;;;5085490;28;20205;-76
2021/06/29 11:03:47;;;;;;;0.73;0.73;;;;;;;;;;5052136;28;20226;-76
2021/06/29 11:06:29;;;;;;;1.20;1.10;;;;;;;;;;5051116;28;20299;-76
2021/06/29 11:08:59;;;;;;;0.68;0.65;;;;;;;;;;5053031;28;20661;-76
2021/06/29 11:11:26;;;;;;;0.93;0.93;;;;;;;;;;5053213;28;20224;-76
2021/06/29 11:13:53;;;;;;;0.63;0.57;;;;;;;;;;5052293;28;20228;-76
2021/06/29 11:16:39;;;;;;;0.80;0.80;;;;;;;;;;5052987;28;20284;-75
2021/06/29 11:19:05;;;;;;;0.70;0.70;;;;;;;;;;5051643;28;20580;-76
2021/06/29 11:21:35;;;;;;;0.70;0.70;;;;;;;;;;5073196;28;20219;-76
2021/06/29 11:24:21;;;;;;;0.60;0.60;;;;;;;;;;5072130;28;20233;-75
2021/06/29 11:26:47;;;;;;;1.40;0.95;;;;;;;;;;5072541;28;20235;-76
2021/06/29 11:29:14;;;;;;;0.88;0.80;;;;;;;;;;5072345;28;20197;-76
2021/06/29 11:31:42;;;;;;;1.20;1.05;;;;;;;;;;5072741;28;20284;-76
2021/06/29 11:34:15;;;;;;;0.90;0.90;;;;;;;;;;5069921;28;20283;-76
2021/06/29 11:36:46;;;;;;;0.70;0.70;;;;;;;;;;5072329;28;20209;-74
2021/06/29 11:39:16;;;;;;;0.85;0.80;;;;;;;;;;5088097;28;20263;-75
2021/06/29 11:42:02;;;;;;;0.98;0.70;;;;;;;;;;5072474;28;20304;-76
2021/06/29 11:44:32;;;;;;;1.10;1.00;;;;;;;;;;5071949;28;20300;-76
2021/06/29 11:47:00;;;;;;;0.80;0.80;;;;;;;;;;5071794;28;20714;-76
2021/06/29 11:49:31;;;;;;;0.95;0.80;;;;;;;;;;5072531;28;20692;-76
2021/06/29 11:51:59;;;;;;;1.02;0.77;;;;;;;;;;5054759;28;20201;-75
2021/06/29 11:54:25;;;;;;;0.77;0.77;;;;;;;;;;5071464;28;20285;-74
2021/06/29 11:56:51;;;;;;;0.95;0.68;;;;;;;;;;5072524;28;20205;-75
2021/06/29 11:59:31;;;;;;;0.80;0.80;;;;;;;;;;5072340;28;20304;-75
2021/06/29 12:02:08;;;;;;;1.02;0.93;;;;;;;;;;5083122;28;20208;-74
2021/06/29 12:04:35;;;;;;;0.80;0.80;;;;;;;;;;5072912;28;20591;-75
2021/06/29 12:07:05;;;;;;;0.60;0.60;;;;;;;;;;5072794;28;20224;-75
2021/06/29 12:09:33;;;;;;;0.80;0.80;;;;;;;;;;5091233;28;20691;-75
2021/06/29 12:12:15;;;;;;;0.90;0.73;;;;;;;;;;5057256;28;20200;-75
2021/06/29 12:14:42;;;;;;;1.20;0.85;;;;;;;;;;5073004;28;20331;-75
2021/06/29 12:17:08;;;;;;;0.90;0.77;;;;;;;;;;5089511;28;20200;-75
2021/06/29 12:19:35;;;;;;;0.57;0.57;;;;;;;;;;5092054;28;20208;-75
2021/06/29 12:22:01;;;;;;;0.82;0.82;;;;;;;;;;5092084;28;20295;-75
2021/06/29 12:24:28;;;;;;;1.00;0.90;;;;;;;;;;5091654;28;20319;-73
2021/06/29 12:26:54;;;;;;;0.60;0.60;;;;;;;;;;5074003;28;20246;-73
2021/06/29 12:29:28;;;;;;;0.80;0.80;;;;;;;;;;5073667;28;20208;-74
2021/06/29 12:31:57;;;;;;;0.77;0.77;;;;;;;;;;5091854;28;20204;-74
2021/06/29 12:34:23;;;;;;;1.30;0.80;;;;;;;;;;5090770;28;20728;-73
2021/06/29 12:36:50;;;;;;;0.95;0.80;;;;;;;;;;5092723;28;20209;-72
2021/06/29 12:39:17;;;;;;;0.98;0.88;;;;;;;;;;5093273;28;20676;-72
2021/06/29 12:41:44;;;;;;;1.75;0.80;;;;;;;;;;5092702;28;20718;-75
2021/06/29 12:44:14;;;;;;;0.73;0.73;;;;;;;;;;5076114;28;20268;-73
2021/06/29 12:46:42;;;;;;;0.80;0.80;;;;;;;;;;5072527;28;20316;-72
2021/06/29 12:49:20;;;;;;;0.70;0.70;;;;;;;;;;5071712;28;20232;-73
2021/06/29 12:51:48;;;;;;;1.10;0.90;;;;;;;;;;5071463;28;20319;-74
2021/06/29 12:54:18;;;;;;;2.10;0.90;;;;;;;;;;5052216;28;20293;-74
2021/06/29 12:56:49;;;;;;;0.65;0.65;;;;;;;;;;5053302;28;20232;-74
2021/06/29 12:59:17;;;;;;;0.65;0.65;;;;;;;;;;5071439;28;20215;-75
2021/06/29 13:01:46;;;;;;;0.70;0.70;;;;;;;;;;5070958;28;20259;-75
2021/06/29 13:04:15;;;;;;;1.00;0.70;;;;;;;;;;5052679;28;20221;-76
2021/06/29 13:06:43;;;;;;;0.95;0.77;;;;;;;;;;5052672;28;20220;-74
2021/06/29 13:09:09;;;;;;;0.52;0.52;;;;;;;;;;5070729;28;20209;-73
2021/06/29 13:11:36;;;;;;;0.85;0.70;;;;;;;;;;5070978;28;20209;-72
2021/06/29 13:14:04;;;;;;;0.70;0.70;;;;;;;;;;5065843;28;20252;-73
2021/06/29 13:16:32;;;;;;;0.95;0.70;;;;;;;;;;5074377;28;20215;-74
2021/06/29 13:18:59;;;;;;;1.40;0.90;;;;;;;;;;5070572;28;20201;-74
2021/06/29 13:21:28;;;;;;;0.57;0.57;;;;;;;;;;5070856;28;20296;-74
2021/06/29 13:23:59;;;;;;;1.30;0.80;;;;;;;;;;5069716;28;20272;-74
2021/06/29 13:26:27;;;;;;;0.73;0.65;;;;;;;;;;5070739;28;20225;-75
2021/06/29 13:28:54;;;;;;;1.25;0.75;;;;;;;;;;5071163;28;20201;-74
2021/06/29 13:31:20;;;;;;;0.88;0.57;;;;;;;;;;5088267;28;20236;-75
2021/06/29 13:33:47;;;;;;;2.08;0.73;;;;;;;;;;5072665;28;20293;-75
2021/06/29 13:36:13;;;;;;;0.80;0.63;;;;;;;;;;5051901;28;20236;-73
2021/06/29 13:38:40;;;;;;;1.38;0.98;;;;;;;;;;5072499;28;20211;-74
2021/06/29 13:41:06;;;;;;;0.70;0.65;;;;;;;;;;5053482;28;20292;-73
2021/06/29 13:43:38;;;;;;;0.98;0.70;;;;;;;;;;5074356;28;20295;-73
2021/06/29 13:46:15;;;;;;;0.70;0.70;;;;;;;;;;5052416;28;20245;-74
2021/06/29 13:48:47;;;;;;;0.60;0.60;;;;;;;;;;5054369;28;20205;-72
2021/06/29 13:51:24;;;;;;;0.85;0.77;;;;;;;;;;5053922;28;20205;-75
2021/06/29 13:53:50;;;;;;;0.77;0.68;;;;;;;;;;5069997;28;20224;-74
2021/06/29 13:56:17;;;;;;;0.57;0.55;;;;;;;;;;5052304;28;20664;-73
2021/06/29 13:58:50;;;;;;;0.70;0.57;;;;;;;;;;5052464;28;20201;-74
2021/06/29 14:01:23;;;;;;;0.52;0.50;;;;;;;;;;5051774;28;20201;-73
2021/06/29 14:03:59;;;;;;;1.10;0.73;;;;;;;;;;5069400;28;20260;-72
2021/06/29 14:06:25;;;;;;;0.70;0.68;;;;;;;;;;5069708;28;20213;-73
2021/06/29 14:09:03;;;;;;;0.77;0.65;;;;;;;;;;5069898;28;20208;-72
2021/06/29 14:11:34;;;;;;;2.25;0.80;;;;;;;;;;5059493;28;20201;-74
2021/06/29 14:14:01;;;;;;;0.55;0.50;;;;;;;;;;5068106;28;20227;-76
2021/06/29 14:16:27;;;;;;;0.85;0.80;;;;;;;;;;5069870;28;20288;-76
2021/06/29 14:18:54;;;;;;;0.80;0.80;;;;;;;;;;5069703;28;20655;-75
2021/06/29 14:21:28;;;;;;;5.05;0.90;;;;;;;;;;5035629;28;20205;-76
2021/06/29 14:23:56;;;;;;;0.77;0.77;;;;;;;;;;5070499;28;20220;-76
2021/06/29 14:26:22;;;;;;;1.02;0.80;;;;;;;;;;5071783;28;20388;-75
2021/06/29 14:28:53;;;;;;;0.75;0.70;;;;;;;;;;5054704;28;20209;-75
2021/06/29 14:31:20;;;;;;;0.60;0.60;;;;;;;;;;5051240;28;20673;-75
2021/06/29 14:33:47;;;;;;;0.63;0.60;;;;;;;;;;5069568;28;20738;-75
2021/06/29 14:36:14;;;;;;;0.93;0.88;;;;;;;;;;5051837;28;20589;-73
2021/06/29 14:38:41;;;;;;;0.77;0.77;;;;;;;;;;5051832;28;20633;-73
2021/06/29 14:41:08;;;;;;;0.70;0.70;;;;;;;;;;5070648;28;20594;-74
2021/06/29 14:43:37;;;;;;;0.70;0.70;;;;;;;;;;5072796;28;20221;-76
2021/06/29 14:46:04;;;;;;;0.52;0.52;;;;;;;;;;5072172;28;20201;-75
2021/06/29 14:48:31;;;;;;;0.70;0.70;;;;;;;;;;5070712;28;20201;-75
2021/06/29 14:50:58;;;;;;;0.65;0.60;;;;;;;;;;5072874;28;20205;-74
2021/06/29 14:53:24;;;;;;;0.68;0.68;;;;;;;;;;5071691;28;20209;-74
2021/06/29 14:55:51;;;;;;;0.70;0.70;;;;;;;;;;5073503;28;20295;-74
2021/06/29 14:58:17;;;;;;;0.90;0.80;;;;;;;;;;5079127;28;20197;-74
2021/06/29 15:00:44;;;;;;;0.88;0.82;;;;;;;;;;5110140;28;20222;-74
2021/06/29 15:03:11;;;;;;;0.50;0.50;;;;;;;;;;5096282;28;20205;-75
2021/06/29 15:05:38;;;;;;;0.75;0.75;;;;;;;;;;5096622;28;20212;-74
2021/06/29 15:08:05;;;;;;;0.80;0.80;;;;;;;;;;5095933;28;20240;-73
2021/06/29 15:10:32;;;;;;;1.02;0.90;;;;;;;;;;5093294;28;20202;-73
2021/06/29 15:13:04;;;;;;;1.23;1.10;;;;;;;;;;5085234;28;20211;-73
2021/06/29 15:15:31;;;;;;;1.23;0.77;;;;;;;;;;5056412;28;20217;-74
2021/06/29 15:17:58;;;;;;;1.45;1.10;;;;;;;;;;5055141;28;20224;-73
2021/06/29 15:20:24;;;;;;;1.23;1.10;;;;;;;;;;5072737;28;20208;-72
2021/06/29 15:22:51;;;;;;;2.33;0.90;;;;;;;;;;5054311;28;20312;-74
2021/06/29 15:25:18;;;;;;;0.75;0.75;;;;;;;;;;5054120;28;20316;-73
2021/06/29 15:27:45;;;;;;;1.20;1.10;;;;;;;;;;5071843;28;20244;-73
2021/06/29 15:30:11;;;;;;;1.30;1.20;;;;;;;;;;5072453;28;20650;-77
2021/06/29 15:32:38;;;;;;;1.45;1.20;;;;;;;;;;5072000;28;20211;-76
2021/06/29 15:35:06;;;;;;;1.40;1.25;;;;;;;;;;5071482;28;20665;-76
2021/06/29 15:37:33;;;;;;;1.80;1.42;;;;;;;;;;5055050;28;20288;-77
2021/06/29 15:40:00;;;;;;;0.95;0.93;;;;;;;;;;5054687;28;20205;-77
2021/06/29 15:42:27;;;;;;;1.67;1.45;;;;;;;;;;5054163;28;20300;-76
2021/06/29 15:44:53;;;;;;;1.35;0.98;;;;;;;;;;5071281;28;20235;-76
2021/06/29 15:47:19;;;;;;;1.00;0.80;;;;;;;;;;5071784;28;20684;-76
2021/06/29 15:49:46;;;;;;;1.10;1.00;;;;;;;;;;5054118;28;20578;-76
2021/06/29 15:52:12;;;;;;;1.27;1.13;;;;;;;;;;5072244;28;20640;-77
2021/06/29 15:54:39;;;;;;;8.77;1.90;;;;;;;;;;5071122;28;20780;-76
2021/06/29 15:57:05;;;;;;;1.98;1.23;;;;;;;;;;5071887;28;20303;-76
2021/06/29 15:59:31;;;;;;;4.28;0.75;;;;;;;;;;5072039;28;20209;-77
2021/06/29 16:01:58;;;;;;;2.13;0.45;;;;;;;;;;5072088;28;20201;-77
2021/06/29 16:04:24;;;;;;;2.08;0.82;;;;;;;;;;5071997;28;20229;-77
2021/06/29 16:06:52;;;;;;;0.25;0.10;;;;;;;;;;5094829;28;20224;-75
2021/06/29 16:09:19;;;;;;;0.20;0.20;;;;;;;;;;5089317;28;20280;-74
2021/06/29 16:11:45;;;;;;;3.28;0.30;;;;;;;;;;5053792;28;20856;-75
2021/06/29 16:14:12;;;;;;;4.50;0.50;;;;;;;;;;5070864;28;20336;-74
2021/06/29 16:16:38;;;;;;;0.88;0.45;;;;;;;;;;5071709;28;20291;-75